Vladimir Milenkovic

Chefscout - Vojvodina
3 Dez 2028
Sonntag
Verarbeitung

Persönlichkeit

Anpassungsfähigkeit (6) Ehrgeiz (6) Kontroverse (9) Loyalität (18) Druck (17) Professionalität (9) Fairness (5) Temperament (19)

Profil

Trainerstil Demokratisch
Lizenz Nationale B
Entschlossenheit 7
Menschenführung 12
Motivation 4
Disziplin 5
Arbeitszufriedenheit
100%
Ermüdung
0%
Rolle Chefscout
Gehalt 45.0K p/W
Vertrag 14.03.2029

Leistung

Verhalten Gut
Trainingseffektivität
36%
Spielerentwicklung
25%
Verletzungsprävention
35%
Taktische Umsetzung
30%

Letzte Ereignisse

Nahm an einer Scouting-Besprechung teil jetzt
Nahm an einer Scouting-Besprechung teil jetzt
Empfahl ein Transferziel jetzt
Empfahl ein Transferziel jetzt
Empfahl ein Transferziel jetzt
Empfahl ein Transferziel 7T her
Empfahl ein Transferziel 7T her
Spiel beobachtet 7T her

Aktuell beobachtet

217
Spieler Verein Status Fähigkeit Vertrauen Beobachtet Zuletzt beobachtet Letzte Stimme
Borko Duronjić Radnik Surdulica Aktiv 111 / 99 62% 1 21.08.2028 Befürworten
André Miranda Porto Aktiv 121 / 121 40% 3 08.08.2028 -
Abdoulaye Allamine Stars Jeunes Talents Aktiv 66 / 77 40% 1 08.08.2028 -
Jake Evans Crewe Alexandra Aktiv 115 / 127 40% 4 31.07.2028 -
Lennart Karl TSG Hoffenheim Aktiv 142 / 144 40% 1 31.07.2028 -
Riquelme Thompson-Jones Accrington Stanley Aktiv 108 / 115 40% 1 18.07.2028 -
Denis Grigorjev Arsenal Tula Aktiv 96 / 92 40% 1 03.07.2028 -
Celías Ingenthron Platense Aktiv 111 / 115 40% 1 26.06.2028 -
Andrija Bulatović Chamois Niortais Aktiv 124 / 130 40% 4 19.06.2028 -
Jenson Jones Walsall Aktiv 107 / 109 40% 1 12.06.2028 -
David Buchta Radnicki 1923 Verloren 119 / 119 58% 1 06.06.2028 -
Giovanni Leoni Lincoln City Aktiv 136 / 154 40% 1 31.05.2028 -
Darlvin Yeboah Bechem United Aktiv 88 / 100 40% 6 30.05.2028 -
Joshua Ajala Walsall Aktiv 110 / 114 40% 2 29.05.2028 -
Dmitry Nikitin Baltika Aktiv 86 / 97 40% 1 29.05.2028 -
Rahul Sharma Pontedera Aktiv 90 / 97 40% 1 26.05.2028 -
Luka Andrade Montevideo City Torque Aktiv 99 / 114 40% 2 25.05.2028 -
Igor Tyjon Barrow AFC Aktiv 116 / 131 40% 2 25.05.2028 -
Francisco Souza Silva Feirense Aktiv 113 / 118 40% 4 24.05.2028 -
Ivan Denysov Rukh Aktiv 84 / 101 40% 2 24.05.2028 -
Nathan Mbala FC Metz Aktiv 99 / 106 40% 5 23.05.2028 -
Nazif Inoussa Benfica Aktiv 76 / 87 40% 3 22.05.2028 -
João Tavares Porto Aktiv 82 / 94 40% 2 20.05.2028 -
Rémi Himbert AC Ajaccio Aktiv 119 / 122 40% 1 20.05.2028 -
Cristian Carrara Guidonia Montecelio Aktiv 99 / 104 40% 4 19.05.2028 -
Ousseynou Seck Randers Aktiv 108 / 140 40% 1 18.05.2028 -
Luca Williams-Barnett Walsall Aktiv 121 / 135 40% 6 16.05.2028 -
Baba N'Diaye Chaika Aktiv 88 / 90 40% 3 13.05.2028 -
Otto Stange Borussia Mönchengladbach Aktiv 136 / 128 40% 2 12.05.2028 -
Andrea Luongo Trento Aktiv 105 / 105 40% 1 10.05.2028 -
Artur Kozyrev Volna Aktiv 98 / 89 40% 1 09.05.2028 -
Fletcher Boyd Accrington Stanley Aktiv 108 / 108 40% 3 08.05.2028 -
Mattia Esposito Virtus Verona Aktiv 86 / 87 40% 1 08.05.2028 -
Sam Amo-Ameyaw RC Strasbourg Aktiv 123 / 138 40% 1 07.05.2028 -
Ryan Oné Sheffield United Aktiv 119 / 128 40% 2 02.05.2028 -
Kylian Kouakou Valenciennes Aktiv 91 / 103 40% 2 24.04.2028 -
Mahmoud Salah El Dakhleya Aktiv 70 / 105 40% 1 20.04.2028 -
Louis Zecevic-John Colchester United Aktiv 93 / 102 40% 1 20.04.2028 -
Kaye Furo Reading Aktiv 115 / 120 40% 1 19.04.2028 -
Jamal Iddrissou Pergolettese Aktiv 113 / 112 40% 1 13.04.2028 -
Lovre Kulušić Dinamo Zagreb Aktiv 108 / 118 40% 1 10.04.2028 -
Luke Baartman Ajax Cape Town Aktiv 120 / 122 40% 7 09.04.2028 -
Luca Meirelles Kudrivka Aktiv 115 / 124 40% 4 09.04.2028 -
Siyabonga Mabena Bidvest Wits Aktiv 128 / 144 40% 6 06.04.2028 -
Ryan Kavuma-McQueen Accrington Stanley Aktiv 126 / 131 40% 3 06.04.2028 -
Michael Noumon Heart of Lions Aktiv 69 / 88 40% 4 05.04.2028 -
Ahmed Khaled Paralimni Aktiv 100 / 120 40% 1 04.04.2028 -
Nana Nuhu WAFA Aktiv 84 / 99 40% 4 19.03.2028 -
Kerim Alajbegović Modena Aktiv 135 / 138 40% 3 16.03.2028 -
Mads Abrahamsen Zenit Penza Aktiv 98 / 84 40% 2 16.03.2028 -
Gomolemo Kekana Maritzburg United Aktiv 106 / 110 40% 1 15.03.2028 -
Lander Astiazarán Real Sociedad Aktiv 110 / 109 40% 5 13.03.2028 -
Víctor Guzmán Sporting CP Aktiv 101 / 118 40% 5 12.03.2028 -
Josh Nichols Oldham Athletic Aktiv 112 / 125 40% 4 12.03.2028 -
Ben Broggio Mansfield Town Aktiv 110 / 122 40% 2 11.03.2028 -
Henrique Carmo Sochi Aktiv 134 / 133 40% 1 11.03.2028 -
Oscar Schwartau Norwich City Aktiv 136 / 128 40% 2 09.03.2028 -
Luighi Palmeiras Aktiv 115 / 106 40% 2 09.03.2028 -
Ryan McAidoo Oldham Athletic Aktiv 127 / 136 40% 2 08.03.2028 -
Luke Brooke-Smith Chesterfield Aktiv 106 / 116 40% 1 08.03.2028 -
Isaque Obolon Aktiv 130 / 125 40% 2 06.03.2028 -
Ruben Ramos LA Galaxy Aktiv 106 / 97 40% 1 22.02.2028 -
Leo Pecover Swindon Town Aktiv 101 / 112 40% 1 19.02.2028 -
Amin Nabizada Exeter City Aktiv 104 / 111 40% 2 17.02.2028 -
Gabe Forsyth Colchester United Aktiv 102 / 123 40% 1 12.02.2028 -
Xavier Jodamus Jomo Cosmos Aktiv 85 / 82 40% 1 08.02.2028 -
Rafael Lobato Rio Ave Aktiv 117 / 119 40% 1 07.02.2028 -
Alphadjo Cissé Lecce Aktiv 129 / 134 40% 1 05.02.2028 -
Romelle Donovan Brentford Aktiv 131 / 128 40% 2 04.02.2028 -
Eduardo Fernandes Benfica Aktiv 123 / 115 40% 1 03.02.2028 -
Nestory Irankunda Watford Aktiv 119 / 133 40% 1 03.02.2028 -
Matias Siltanen Malmo FF Aktiv 128 / 124 40% 2 31.01.2028 -
Rio Ngumoha Plymouth Argyle Aktiv 145 / 140 40% 1 31.01.2028 -
Nicolás Barros Schelotto Gimnasia La Plata Aktiv 115 / 127 40% 2 30.01.2028 -
Zane Albarus Shrewsbury Town Aktiv 104 / 110 40% 3 27.01.2028 -
Tyron Kariuki KCB Aktiv 76 / 87 40% 3 27.01.2028 -
Matija Marsenić Cukaricki Aktiv 104 / 93 58% 1 24.01.2028 Befürworten
Dânio Djassi Portimonense Aktiv 111 / 122 40% 1 24.01.2028 -
Alex Verón Vélez Aktiv 116 / 133 40% 1 24.01.2028 -
Joel Medina Independiente Aktiv 116 / 132 40% 1 05.12.2027 -
Chimobi Igwilo Rangers International Aktiv 93 / 109 40% 2 04.12.2027 -
Juan Camilo Córdoba Deportivo Pereira Aktiv 77 / 94 40% 1 03.12.2027 -
Matías Arias Vélez Aktiv 122 / 110 40% 3 02.12.2027 -
Victor Hernandez Santa Fe Aktiv 122 / 116 40% 1 02.12.2027 -
Tiago Pucciarelli IF Elfsborg Aktiv 89 / 104 40% 1 30.11.2027 -
Alex Amaefula Kun Khalifat Aktiv 96 / 89 40% 2 27.11.2027 -
Dániel Pintér Inter Miami CF Aktiv 98 / 107 40% 1 27.11.2027 -
Nicolás Ferreira Artigas Aktiv 74 / 98 40% 1 24.11.2027 -
Pedro Baltika Aktiv 144 / 152 40% 1 24.11.2027 -
Jayden Danns Bradford City Aktiv 127 / 146 40% 1 23.11.2027 -
Christ Wawa Gefle Aktiv 115 / 102 40% 2 22.11.2027 -
Julián Bragado Morón Aktiv 92 / 79 40% 1 22.11.2027 -
Albert Aleksanjan IFK Norrkoping Aktiv 101 / 113 40% 1 21.11.2027 -
Joseph Abah Remo Stars Aktiv 102 / 110 40% 1 18.11.2027 -
Lucas Nicol Mjondalen Aktiv 74 / 90 40% 1 16.11.2027 -
Giovanni Baroni Talleres Aktiv 107 / 114 40% 2 14.11.2027 -
Hassan Beja AFC Leopards Aktiv 74 / 94 40% 1 13.11.2027 -
Francisco Triver River Plate Aktiv 95 / 92 40% 1 12.11.2027 -
Jeremías Merlo Gimnasia La Plata Aktiv 121 / 115 40% 1 09.11.2027 -
Joel Ezra Enyimba Aktiv 80 / 92 40% 3 04.11.2027 -
Matías Canedo Rampla Juniors Aktiv 95 / 87 40% 1 01.11.2027 -
Lucas Camejo River Plate Aktiv 80 / 91 40% 2 04.10.2027 -
Nahuel Leivas Montevideo City Torque Aktiv 110 / 120 40% 1 04.10.2027 -
Serge Daura PWD Bamenda Aktiv 97 / 118 40% 3 18.08.2027 -
Peter Amidu Acquah Asante Kotoko Aktiv 100 / 86 40% 2 18.08.2027 -
Temur Odilov Mara Sugar Aktiv 67 / 87 40% 1 17.08.2027 -
Daniel Awuni Aduana Stars Aktiv 88 / 105 40% 3 11.08.2027 -
Calum Agius Crewe Alexandra Aktiv 108 / 94 40% 3 09.08.2027 -
Tiago Freitas Benfica Aktiv 117 / 116 40% 1 06.08.2027 -
Gabriele Bertolini Vicenza Aktiv 98 / 103 40% 1 06.08.2027 -
Othmane Maamma Watford Aktiv 122 / 141 40% 2 05.08.2027 -
Cristiano La Sorsa Trapani Aktiv 95 / 88 40% 1 03.08.2027 -
Stevan Manuel Benfica Aktiv 107 / 118 40% 1 03.08.2027 -
Mustapha Umar Kano Pillars Aktiv 83 / 88 40% 1 13.07.2027 -
Mattia Della Rocca Pontedera Aktiv 89 / 92 40% 1 06.07.2027 -
Christ Kouadio Radnik Surdulica Aktiv 104 / 93 58% 1 21.06.2027 -
Gonçalo Oliveira Benfica Aktiv 113 / 114 40% 1 06.06.2027 -
Riyad Idrissi Cagliari Aktiv 124 / 126 40% 1 06.06.2027 -
Ramadan Ashour Sporting Cristal Aktiv 120 / 120 67% 1 01.06.2027 Befürworten
Tamas Kleinheisler St. Pauli Aktiv 114 / 121 66% 1 01.06.2027 Befürworten
Rhys Walters Port Vale Aktiv 97 / 110 40% 1 01.06.2027 -
Máximo Seggio Crawley Town Aktiv 84 / 89 40% 2 30.05.2027 -
Elijas Gunnergård Ortan Ahrobiznes Aktiv 75 / 86 40% 1 29.05.2027 -
Mikel Gogorza Brondby Aktiv 131 / 139 40% 2 27.05.2027 -
Rafael Moreno Atletico Venezuela Aktiv 110 / 101 40% 3 27.05.2027 -
Miloš Jovičić Zabbar St. Patrick Aktiv 87 / 101 40% 4 26.05.2027 -
Jan Bürger Northampton Town Aktiv 111 / 112 40% 1 25.05.2027 -
Dilan Neves Benfica Aktiv 74 / 93 40% 3 23.05.2027 -
Mateus Mané Burnley Aktiv 135 / 136 40% 6 21.05.2027 -
Luka Đorđević Cukaricki Aktiv 99 / 97 40% 3 19.05.2027 -
Maren Kefas Plateau United Aktiv 84 / 86 40% 1 17.05.2027 -
Borna Knezović Casarano Aktiv 103 / 113 40% 2 11.05.2027 -
Stanley Amon Bayelsa United Aktiv 101 / 98 40% 4 10.05.2027 -
Alagie Wally Veres Aktiv 83 / 103 40% 2 09.05.2027 -
Teboho Zwane Ajax Cape Town Aktiv 79 / 105 40% 4 07.05.2027 -
Leo Castledine Middlesbrough Aktiv 133 / 131 40% 6 06.05.2027 -
Njabulo Hlongwane AS Korofina Aktiv 72 / 66 40% 1 06.05.2027 -
Ben Ahmed Kohili Paradou Aktiv 113 / 111 40% 1 03.05.2027 -
Godbless Ayeke AS Bakaridjan Aktiv 92 / 88 40% 2 01.05.2027 -
Fletcher Holman Swindon Town Aktiv 82 / 88 40% 3 01.05.2027 -
Sergey Gaiduk Salyut Aktiv 85 / 70 40% 3 30.04.2027 -
Dani Ángel Sampdoria Aktiv 96 / 91 40% 4 27.04.2027 -
Alen Vukaj Alcione Milano Aktiv 84 / 102 40% 1 27.04.2027 -
Abubakar Garba Nasarawa United Aktiv 75 / 94 40% 2 24.04.2027 -
Lwanda Mbanjwa Platinum Stars Aktiv 101 / 86 40% 4 23.04.2027 -
Jonás Luna Wanderers Aktiv 116 / 125 40% 1 20.04.2027 -
David Fernández O'Higgins Aktiv 101 / 121 40% 1 19.04.2027 -
Mike Themsen Randers Aktiv 107 / 136 40% 1 19.04.2027 -
Rocco Vata Watford Aktiv 121 / 129 40% 1 08.04.2027 -
Chineme Chinonso Ikorodu City Aktiv 94 / 82 40% 1 29.03.2027 -
Eduardo Lozano Botafogo Aktiv 146 / 144 40% 1 26.03.2027 -
Gosiame Ngobeni New Edubiase United Aktiv 61 / 64 40% 1 24.03.2027 -
Will Lankshear Middlesbrough Aktiv 126 / 116 40% 1 20.03.2027 -
Joseph George Aigle Royal de Moungo Aktiv 100 / 104 40% 1 17.03.2027 -
Lorenzo De Leo Renate Aktiv 92 / 94 40% 1 15.03.2027 -
Braiden Graham Everton Aktiv 93 / 97 40% 1 13.03.2027 -
Sam Greenwood Bristol City Aktiv 130 / 130 40% 1 18.01.2027 -
Sam Dalby Bolton Wanderers Aktiv 120 / 109 40% 1 18.01.2027 -
Ar'jany Martha Rotherham United Aktiv 100 / 114 40% 1 29.12.2026 -
Bongani Zungu Ajax Cape Town Aktiv 130 / 136 40% 1 29.12.2026 -
Bienvenue Kanakimana Zbrojovka Brno Aktiv 118 / 121 40% 2 28.12.2026 -
Tomáš Rigo Stoke City Aktiv 138 / 132 40% 1 27.12.2026 -
Kristoffer Lund Birmingham Aktiv 129 / 121 40% 1 27.12.2026 -
Lukáš Červ Viktoria Plzen Aktiv 122 / 133 40% 1 26.12.2026 -
Cian Ashford Cardiff City Aktiv 112 / 123 40% 1 25.12.2026 -
Fiete Arp OB Aktiv 119 / 129 40% 1 25.12.2026 -
Juan Pablo Gallego Fehervar Aktiv 112 / 108 40% 1 23.12.2026 -
Rabiu Abdullahi Bylis Aktiv 86 / 103 40% 1 22.12.2026 -
Adam Randell Bristol City Aktiv 125 / 130 40% 1 22.12.2026 -
Thomas Carrique Andorra Aktiv 121 / 117 40% 2 21.12.2026 -
Bazoumana Touré Newcastle United Aktiv 136 / 142 40% 1 21.12.2026 -
Milan Vukotić Partizan Aktiv 132 / 113 40% 3 18.12.2026 Beobachten
Dominik Pleštil Bohemians 1905 Aktiv 104 / 109 40% 1 16.12.2026 -
Tyrese Campbell Sheffield United Aktiv 135 / 133 40% 1 15.12.2026 -
Max Johnston Derby County Aktiv 133 / 121 40% 1 14.12.2026 -
Oliver Skipp Leicester City Aktiv 137 / 133 40% 1 11.12.2026 -
Ali Ahmed Norwich City Aktiv 122 / 124 40% 1 11.12.2026 -
Kirill Cheburakov Rostov Aktiv 69 / 77 40% 1 10.12.2026 -
Alfie Doughty Millwall Aktiv 129 / 119 40% 1 08.12.2026 -
Joel Bagan Cardiff City Aktiv 113 / 106 40% 1 07.12.2026 -
Scott Twine Bristol City Aktiv 129 / 125 40% 1 06.12.2026 -
Andrey Domotsev Mashuk Aktiv 81 / 91 40% 1 06.12.2026 -
Jesus Ferreira Seattle Sounders Aktiv 137 / 126 40% 1 04.12.2026 -
Juan Bezerra Zamalek Aktiv 109 / 108 40% 3 03.12.2026 -
Jalal Abdullai Molde Aktiv 99 / 109 40% 2 03.12.2026 -
Matías Contrera Hrvatski Dragovoljac Aktiv 102 / 100 40% 1 03.12.2026 -
Manu Morlanes Mallorca Aktiv 134 / 145 40% 1 01.12.2026 -
Cheick Oumar Souaré Viktoria Plzen Aktiv 123 / 115 40% 1 01.12.2026 -
Arsen Adamov Akhmat Grozny Aktiv 125 / 111 40% 1 30.11.2026 -
Marcelo Allende Mamelodi Sundowns Aktiv 117 / 138 40% 1 30.11.2026 -
Oswin Appollis Orlando Pirates Aktiv 121 / 121 40% 1 29.11.2026 -
Reda Khadra Qarabag Aktiv 136 / 120 40% 2 28.11.2026 -
Maximo Ingravidi Colón Aktiv 111 / 109 40% 1 27.11.2026 -
Thabang Matuludi Polokwane City Aktiv 105 / 126 40% 1 27.11.2026 -
Bojica Nikčević Radnicki 1923 Aktiv 111 / 101 40% 1 27.11.2026 -
Filip Kubala Banik Ostrava Aktiv 128 / 112 40% 1 26.11.2026 -
Gizo Mamageishvili Sturm Graz Aktiv 124 / 118 40% 1 26.11.2026 -
David Kalokoh Ajax Aktiv 119 / 114 40% 1 24.11.2026 -
Marco Pašalić Orlando City Aktiv 125 / 126 40% 1 24.11.2026 -
Themba Dala Black Aces Aktiv 126 / 101 40% 1 21.11.2026 -
Sandi Balkovec NK Domzale Aktiv 80 / 84 40% 1 20.11.2026 -
Luka Stojković Dinamo Zagreb Aktiv 127 / 126 40% 1 16.11.2026 -
Daniel Kyerewaa Reading Aktiv 110 / 119 40% 1 13.11.2026 -
Tio Cipot NK Maribor Aktiv 123 / 120 40% 1 11.11.2026 -
Erik Botheim Viking Aktiv 139 / 112 40% 1 06.11.2026 -
Jens Petter Hauge Bodo/Glimt Aktiv 125 / 128 40% 1 04.11.2026 -
Tadeo Allende Inter Miami CF Aktiv 134 / 112 40% 1 03.11.2026 -
Frederik Carstensen Sarpsborg 08 Aktiv 121 / 121 40% 1 02.11.2026 -
Simphiwe Selepe Orlando Pirates Aktiv 102 / 124 40% 1 22.10.2026 -
Nikola Krstić IMT Verloren 100 / 110 40% 1 21.10.2026 -
Sanel Šaljić Austria Wien Aktiv 117 / 114 40% 1 18.10.2026 -
Dean Jali Platinum Stars Aktiv 110 / 112 40% 1 18.10.2026 -
Shola Ogundana Dynamo Kyiv Aktiv 125 / 113 40% 1 12.10.2026 -
David Ozoh Derby County Aktiv 128 / 125 40% 1 09.10.2026 -
Agustín Medina Lanús Aktiv 116 / 123 40% 2 07.10.2026 -
Yahaya Ibrahim Plateau United Aktiv 89 / 96 40% 1 07.09.2026 -
Marko Ćurić Zeleznicar Pancevo Aktiv 97 / 87 55% 1 24.08.2026 -